createdAt,value
2023-04-21T00:03:55.502Z,-65
2023-04-21T00:08:56.900Z,-64
2023-04-21T00:13:58.054Z,-64
2023-04-21T00:18:59.387Z,-64
2023-04-21T00:24:00.681Z,-64
2023-04-21T00:29:01.895Z,-64
2023-04-21T00:34:03.090Z,-64
2023-04-21T00:39:04.255Z,-64
2023-04-21T00:44:05.477Z,-63
2023-04-21T00:49:06.688Z,-64
2023-04-21T00:54:07.874Z,-65
2023-04-21T00:59:09.046Z,-63
2023-04-21T01:04:10.548Z,-63
2023-04-21T01:09:15.044Z,-64
2023-04-21T01:14:16.253Z,-63
2023-04-21T01:19:18.345Z,-63
2023-04-21T01:24:19.730Z,-64
2023-04-21T01:29:21.046Z,-63
2023-04-21T01:34:22.301Z,-63
2023-04-21T01:39:23.441Z,-63
2023-04-21T01:44:25.061Z,-63
2023-04-21T01:49:26.840Z,-63
2023-04-21T01:54:28.098Z,-63
2023-04-21T01:59:29.278Z,-63
2023-04-21T02:04:30.583Z,-64
2023-04-21T02:09:31.833Z,-63
2023-04-21T02:14:32.967Z,-64
2023-04-21T02:19:34.223Z,-63
2023-04-21T02:24:35.897Z,-63
2023-04-21T02:29:37.135Z,-64
2023-04-21T02:34:38.325Z,-64
2023-04-21T02:39:39.494Z,-63
2023-04-21T02:44:40.854Z,-63
2023-04-21T02:49:42.066Z,-63
2023-04-21T02:54:43.287Z,-62
2023-04-21T02:59:44.449Z,-63
2023-04-21T03:04:45.672Z,-63
2023-04-21T03:09:46.843Z,-63
2023-04-21T03:14:48.078Z,-63
2023-04-21T03:19:49.284Z,-63
2023-04-21T03:24:50.428Z,-63
2023-04-21T03:29:51.604Z,-64
2023-04-21T03:34:52.806Z,-63
2023-04-21T03:39:54.079Z,-63
2023-04-21T03:44:55.311Z,-63
2023-04-21T03:49:56.524Z,-64
2023-04-21T03:54:57.740Z,-63
2023-04-21T03:59:58.957Z,-63
2023-04-21T04:05:00.268Z,-63
2023-04-21T04:10:01.496Z,-63
2023-04-21T04:15:02.880Z,-64
2023-04-21T04:20:04.593Z,-63
2023-04-21T04:25:05.866Z,-62
2023-04-21T04:30:07.108Z,-63
2023-04-21T04:35:08.308Z,-63
2023-04-21T04:40:12.745Z,-64
2023-04-21T04:45:13.990Z,-63
2023-04-21T04:50:15.234Z,-64
2023-04-21T04:55:16.469Z,-63
2023-04-21T05:00:18.163Z,-63
2023-04-21T05:05:20.274Z,-63
2023-04-21T05:10:21.516Z,-63
2023-04-21T05:15:23.029Z,-63
2023-04-21T05:20:24.249Z,-63
2023-04-21T05:25:25.525Z,-62
2023-04-21T05:30:26.669Z,-68
2023-04-21T05:35:27.888Z,-63
2023-04-21T05:40:29.104Z,-62
2023-04-21T05:45:30.308Z,-64
2023-04-21T05:50:33.980Z,-64
2023-04-21T05:55:35.205Z,-64
2023-04-21T06:00:36.366Z,-64
2023-04-21T06:05:37.600Z,-64
2023-04-21T06:10:38.830Z,-64
2023-04-21T06:15:40.014Z,-63
2023-04-21T06:20:41.217Z,-63
2023-04-21T06:25:42.370Z,-63
2023-04-21T06:30:45.822Z,-63
2023-04-21T06:35:47.040Z,-63
2023-04-21T06:40:48.257Z,-64
2023-04-21T06:45:49.480Z,-63
2023-04-21T06:50:50.648Z,-64
2023-04-21T06:55:52.923Z,-63
2023-04-21T07:00:54.191Z,-63
2023-04-21T07:05:55.432Z,-65
2023-04-21T07:10:56.639Z,-63
2023-04-21T07:15:57.926Z,-64
2023-04-21T07:20:59.128Z,-63
2023-04-21T07:26:00.326Z,-63
2023-04-21T07:31:03.480Z,-63
2023-04-21T07:36:05.021Z,-63
2023-04-21T07:41:06.231Z,-63
2023-04-21T07:46:07.639Z,-63
2023-04-21T07:51:08.929Z,-63
2023-04-21T07:56:10.147Z,-63
2023-04-21T08:01:11.865Z,-63
2023-04-21T08:06:13.115Z,-63
2023-04-21T08:11:14.418Z,-62
2023-04-21T08:16:15.847Z,-63
2023-04-21T08:21:17.035Z,-64
2023-04-21T08:26:20.921Z,-64
2023-04-21T08:31:22.260Z,-63
2023-04-21T08:36:29.545Z,-67
2023-04-21T08:41:31.608Z,-66
2023-04-21T08:46:32.799Z,-65
2023-04-21T08:51:34.431Z,-64
2023-04-21T08:56:35.680Z,-64
2023-04-21T09:01:36.836Z,-64
2023-04-21T09:06:38.069Z,-66
2023-04-21T09:11:39.358Z,-65
2023-04-21T09:16:40.595Z,-65
2023-04-21T09:21:41.804Z,-65
2023-04-21T09:26:43.019Z,-65
2023-04-21T09:31:44.293Z,-66
2023-04-21T09:36:46.272Z,-66
2023-04-21T09:41:47.483Z,-65
2023-04-21T09:46:49.593Z,-66
2023-04-21T09:52:16.979Z,-65
2023-04-21T09:57:12.205Z,-64
2023-04-21T10:02:13.811Z,-64
2023-04-21T10:07:15.098Z,-63
2023-04-21T10:12:16.245Z,-65
2023-04-21T10:17:18.056Z,-64
2023-04-21T10:22:20.717Z,-63
2023-04-21T10:27:23.442Z,-63
2023-04-21T10:32:24.892Z,-63
2023-04-21T10:37:26.126Z,-66
2023-04-21T10:42:27.378Z,-64
2023-04-21T10:47:28.675Z,-63
2023-04-21T10:52:29.892Z,-64
2023-04-21T10:57:31.584Z,-63
2023-04-21T11:02:34.025Z,-63
2023-04-21T11:07:36.300Z,-64
2023-04-21T11:12:37.453Z,-64
2023-04-21T11:17:39.942Z,-64
2023-04-21T11:22:41.278Z,-63
2023-04-21T11:27:42.493Z,-64
2023-04-21T11:32:43.761Z,-63
2023-04-21T11:37:44.942Z,-64
2023-04-21T11:42:46.116Z,-63
2023-04-21T11:47:47.384Z,-63
2023-04-21T11:52:48.598Z,-63
2023-04-21T11:57:49.774Z,-64
2023-04-21T12:02:51.062Z,-67
2023-04-21T12:07:52.429Z,-69
2023-04-21T12:12:53.596Z,-67
2023-04-21T12:17:55.224Z,-64
2023-04-21T12:22:56.606Z,-64
2023-04-21T12:27:57.938Z,-69
2023-04-21T12:32:59.369Z,-65
2023-04-21T12:38:00.693Z,-64
2023-04-21T12:43:01.924Z,-64
2023-04-21T12:48:04.977Z,-64
2023-04-21T12:53:06.175Z,-65
2023-04-21T12:58:07.397Z,-65
2023-04-21T13:03:08.753Z,-65
2023-04-21T13:08:09.965Z,-61
2023-04-21T13:13:11.140Z,-62
2023-04-21T13:18:12.340Z,-63
2023-04-21T13:23:14.395Z,-64
2023-04-21T13:28:16.892Z,-62
2023-04-21T13:33:18.126Z,-63
2023-04-21T13:38:20.544Z,-62
2023-04-21T13:43:21.808Z,-63
2023-04-21T13:48:24.197Z,-66
2023-04-21T13:53:25.621Z,-62
2023-04-21T13:58:26.908Z,-62
2023-04-21T14:03:28.229Z,-62
2023-04-21T14:08:29.475Z,-62
2023-04-21T14:13:36.338Z,-65
2023-04-21T14:18:44.338Z,-65
2023-04-21T14:23:45.611Z,-64
2023-04-21T14:28:46.915Z,-64
2023-04-21T14:33:48.112Z,-65
2023-04-21T14:38:49.286Z,-65
2023-04-21T14:43:53.751Z,-66
2023-04-21T14:48:55.045Z,-66
2023-04-21T14:53:56.693Z,-67
2023-04-21T14:58:57.888Z,-65
2023-04-21T15:03:59.984Z,-66
2023-04-21T15:09:01.687Z,-65
2023-04-21T15:14:02.989Z,-65
2023-04-21T15:19:04.286Z,-65
2023-04-21T15:24:05.539Z,-65
2023-04-21T15:29:06.754Z,-65
2023-04-21T15:34:08.022Z,-65
2023-04-21T15:39:13.723Z,-67
2023-04-21T15:44:14.936Z,-65
2023-04-21T15:49:16.170Z,-67
2023-04-21T15:54:17.430Z,-64
2023-04-21T15:59:18.598Z,-65
2023-04-21T16:04:19.936Z,-65
2023-04-21T16:09:21.718Z,-68
2023-04-21T16:14:22.989Z,-68
2023-04-21T16:19:24.486Z,-64
2023-04-21T16:24:25.870Z,-64
2023-04-21T16:29:27.116Z,-63
2023-04-21T16:34:28.314Z,-65
2023-04-21T16:39:29.572Z,-66
2023-04-21T16:44:30.994Z,-68
2023-04-21T16:49:32.179Z,-67
2023-04-21T16:54:33.379Z,-67
2023-04-21T16:59:34.665Z,-65
2023-04-21T17:04:37.542Z,-67
2023-04-21T17:09:39.065Z,-67
2023-04-21T17:14:40.630Z,-65
2023-04-21T17:19:41.911Z,-65
2023-04-21T17:24:52.330Z,-65
2023-04-21T17:29:54.656Z,-65
2023-04-21T17:34:56.185Z,-63
2023-04-21T17:39:59.116Z,-62
2023-04-21T17:45:05.346Z,-67
2023-04-21T17:50:08.829Z,-65
2023-04-21T17:55:10.096Z,-66
2023-04-21T18:00:11.572Z,-65
2023-04-21T18:05:17.058Z,-65
2023-04-21T18:10:18.284Z,-66
2023-04-21T18:15:19.481Z,-65
2023-04-21T18:20:20.813Z,-65
2023-04-21T18:25:38.325Z,-66
2023-04-21T18:30:43.063Z,-66
2023-04-21T18:35:44.223Z,-67
2023-04-21T18:40:45.477Z,-64
2023-04-21T18:45:46.800Z,-67
2023-04-21T18:50:48.054Z,-67
2023-04-21T18:55:49.300Z,-66
2023-04-21T19:00:50.652Z,-67
2023-04-21T19:05:52.294Z,-66
2023-04-21T19:10:53.489Z,-66
2023-04-21T19:15:54.738Z,-67
2023-04-21T19:20:56.089Z,-66
2023-04-21T19:25:57.508Z,-66
2023-04-21T19:30:58.724Z,-71
2023-04-21T19:35:59.939Z,-69
2023-04-21T19:41:01.073Z,-69
2023-04-21T19:46:02.455Z,-68
2023-04-21T19:51:03.686Z,-68
2023-04-21T19:56:04.921Z,-68
2023-04-21T20:01:06.386Z,-68
2023-04-21T20:06:07.625Z,-67
2023-04-21T20:11:08.838Z,-68
2023-04-21T20:16:10.154Z,-67
2023-04-21T20:21:11.360Z,-67
2023-04-21T20:26:12.531Z,-68
2023-04-21T20:31:14.520Z,-67
2023-04-21T20:36:17.629Z,-67
2023-04-21T20:41:18.938Z,-67
2023-04-21T20:46:20.451Z,-65
2023-04-21T20:51:22.023Z,-64
2023-04-21T20:56:23.199Z,-62
2023-04-21T21:01:24.489Z,-65
2023-04-21T21:06:25.755Z,-67
2023-04-21T21:11:27.104Z,-64
2023-04-21T21:16:28.331Z,-66
2023-04-21T21:21:29.613Z,-64
2023-04-21T21:26:30.809Z,-64
2023-04-21T21:31:32.022Z,-64
2023-04-21T21:36:33.264Z,-66
2023-04-21T21:41:34.522Z,-64
2023-04-21T21:46:36.338Z,-64
2023-04-21T21:51:37.626Z,-65
2023-04-21T21:56:38.845Z,-65
2023-04-21T22:01:40.045Z,-65
2023-04-21T22:06:41.302Z,-65
2023-04-21T22:11:42.530Z,-65
2023-04-21T22:16:45.543Z,-65
2023-04-21T22:21:46.730Z,-63
2023-04-21T22:26:47.930Z,-64
2023-04-21T22:31:49.156Z,-64
2023-04-21T22:36:50.540Z,-65
2023-04-21T22:41:53.067Z,-65
2023-04-21T22:46:54.651Z,-65
2023-04-21T22:51:55.821Z,-65
2023-04-21T22:56:57.174Z,-64
2023-04-21T23:01:58.382Z,-66
2023-04-21T23:06:59.636Z,-63
2023-04-21T23:12:01.410Z,-64
2023-04-21T23:17:02.694Z,-65
2023-04-21T23:22:03.945Z,-64
2023-04-21T23:27:05.147Z,-65
2023-04-21T23:32:06.708Z,-66
2023-04-21T23:37:08.007Z,-66
2023-04-21T23:42:09.477Z,-64
2023-04-21T23:47:11.525Z,-65
2023-04-21T23:52:12.744Z,-66
2023-04-21T23:57:14.341Z,-65
